Anselmo, Nebraska
Current Conditions -  °F | °C
As of 9:53 PM on Friday 24 Oct 2014 (Local Time) from KBBW Reporting Station
Clear Clear  
Wind Chill: 46°   Ceiling: Unl
Heat Index: 48°   Visibility: 10mi
Dew Point: 40°   Wind: 5mph
Humidity: 74%   Direction: 350°N
Pressure: 30.04"   Gusts: NA
Location:  41.62°N, 99.87°W
Report Text: KBBW 250253Z AUTO 35004KT 10SM CLR 09/04 A3004 RMK AO2 SLP169 T00890044 53016
Loading
Personal Weather Stations






























Interactive Weather Map
Tropical Storm Tracking
New forecast layout! Learn more

10-Day Weather Forecast

Advertisements
Track Severe Weather on mobile